Time;durP1;ratioP1;P1;durP2;ratioP2;P2;SDS_P1;SDS_P2;PMS_P1;PMS_P2;Temp;Humidity;BMP_temperature;BMP_pressure;BME280_temperature;BME280_humidity;BME280_pressure;Samples;Min_cycle;Max_cycle;Signal;HPM_P1;HPM_P2
2022/03/25 00:00:36;;;;;;;43.37;34.40;;;6.90;99.90;;;;;;4963252;28;20451;-90
2022/03/25 00:03:25;;;;;;;45.37;34.73;;;6.80;99.90;;;;;;4960987;28;20502;-89
2022/03/25 00:06:13;;;;;;;45.20;34.50;;;6.80;99.90;;;;;;4968037;28;20483;-90
2022/03/25 00:09:03;;;;;;;44.10;35.70;;;6.70;99.90;;;;;;4969631;28;20482;-89
2022/03/25 00:11:53;;;;;;;40.23;33.00;;;6.70;99.90;;;;;;4961621;28;20616;-90
2022/03/25 00:14:41;;;;;;;39.83;33.20;;;6.70;99.90;;;;;;4961870;28;20565;-88
2022/03/25 00:17:29;;;;;;;43.30;33.60;;;6.60;99.90;;;;;;4961428;28;20577;-89
2022/03/25 00:20:17;;;;;;;40.17;32.00;;;6.60;99.90;;;;;;4958448;28;20827;-88
2022/03/25 00:23:06;;;;;;;41.40;33.17;;;6.50;99.90;;;;;;4964343;28;20494;-88
2022/03/25 00:25:59;;;;;;;40.40;33.20;;;6.50;99.90;;;;;;4964400;28;20632;-89
2022/03/25 00:28:47;;;;;;;40.80;32.93;;;6.50;99.90;;;;;;4965615;28;20524;-90
2022/03/25 00:31:35;;;;;;;42.87;33.40;;;6.40;99.90;;;;;;4963410;28;20583;-91
2022/03/25 00:34:23;;;;;;;41.30;32.77;;;6.40;99.90;;;;;;4966114;28;20940;-89
2022/03/25 00:37:12;;;;;;;40.60;32.77;;;6.40;99.90;;;;;;4962409;28;20477;-89
2022/03/25 00:40:01;;;;;;;42.10;34.10;;;6.30;99.90;;;;;;4956093;28;21104;-90
2022/03/25 00:42:51;;;;;;;41.70;32.90;;;6.30;99.90;;;;;;4960114;28;20486;-89
2022/03/25 00:45:40;;;;;;;43.10;31.97;;;6.30;99.90;;;;;;4957888;28;20609;-89
2022/03/25 00:48:28;;;;;;;38.73;31.27;;;6.30;99.90;;;;;;4964304;28;21293;-89
2022/03/25 00:51:17;;;;;;;44.90;33.67;;;6.30;99.90;;;;;;4960131;28;20443;-89
2022/03/25 00:54:06;;;;;;;43.60;32.67;;;6.20;99.90;;;;;;4963542;28;20519;-89
2022/03/25 00:56:54;;;;;;;44.30;33.17;;;6.20;99.90;;;;;;4964703;28;20541;-90
2022/03/25 00:59:44;;;;;;;38.77;32.47;;;6.20;99.90;;;;;;4960307;28;20546;-89
2022/03/25 01:02:34;;;;;;;43.10;33.17;;;6.20;99.90;;;;;;4964914;28;20533;-89
2022/03/25 01:05:22;;;;;;;43.20;32.70;;;6.10;99.90;;;;;;4964242;28;20814;-91
2022/03/25 01:08:11;;;;;;;40.83;32.83;;;6.10;99.90;;;;;;4958082;28;21013;-90
2022/03/25 01:10:59;;;;;;;42.03;31.20;;;6.10;99.90;;;;;;4965060;28;20965;-90
2022/03/25 01:13:48;;;;;;;40.57;31.40;;;6.00;99.90;;;;;;4957552;28;20486;-91
2022/03/25 01:16:38;;;;;;;40.37;32.13;;;6.00;99.90;;;;;;4964830;28;20824;-90
2022/03/25 01:19:27;;;;;;;40.97;30.80;;;6.00;99.90;;;;;;4964976;28;20454;-90
2022/03/25 01:22:16;;;;;;;40.80;32.10;;;5.90;99.90;;;;;;4967838;28;20462;-88
2022/03/25 01:25:08;;;;;;;41.57;31.87;;;5.90;99.90;;;;;;4964062;28;20473;-90
2022/03/25 01:27:57;;;;;;;45.80;33.07;;;5.90;99.90;;;;;;4966449;28;20525;-91
2022/03/25 01:30:45;;;;;;;39.90;32.40;;;5.80;99.90;;;;;;4961579;28;20459;-89
2022/03/25 01:33:36;;;;;;;42.67;31.93;;;5.80;99.90;;;;;;4961332;28;20607;-90
2022/03/25 01:36:25;;;;;;;44.23;32.77;;;5.80;99.90;;;;;;4967581;28;20490;-89
2022/03/25 01:39:14;;;;;;;42.23;33.20;;;5.80;99.90;;;;;;4966215;28;20520;-89
2022/03/25 01:42:02;;;;;;;37.90;30.60;;;5.80;99.90;;;;;;4961476;28;20573;-90
2022/03/25 01:44:50;;;;;;;40.53;31.43;;;5.70;99.90;;;;;;4945080;28;20557;-89
2022/03/25 01:47:39;;;;;;;47.47;33.03;;;5.70;99.90;;;;;;4949979;28;20475;-91
2022/03/25 01:50:29;;;;;;;41.77;32.00;;;5.70;99.90;;;;;;4936016;29;20506;-89
2022/03/25 01:53:19;;;;;;;41.47;32.43;;;5.70;99.90;;;;;;4944938;29;20630;-88
2022/03/25 01:56:08;;;;;;;39.57;32.60;;;5.60;99.90;;;;;;4946714;29;20455;-91
2022/03/25 01:58:56;;;;;;;43.80;31.97;;;5.60;99.90;;;;;;4939195;29;20574;-90
2022/03/25 02:01:48;;;;;;;42.63;32.63;;;5.60;99.90;;;;;;4949870;29;20497;-90
2022/03/25 02:04:36;;;;;;;42.07;31.37;;;5.50;99.90;;;;;;4940372;29;20636;-90
2022/03/25 02:07:26;;;;;;;39.43;30.47;;;5.50;99.90;;;;;;4945503;28;20533;-89
2022/03/25 02:10:16;;;;;;;37.57;29.27;;;5.40;99.90;;;;;;4942314;29;21192;-90
2022/03/25 02:13:05;;;;;;;41.77;31.73;;;5.40;99.90;;;;;;4937084;28;20496;-88
2022/03/25 02:15:53;;;;;;;40.30;30.87;;;5.40;99.90;;;;;;4943263;29;20495;-90
2022/03/25 02:18:42;;;;;;;41.13;31.77;;;5.40;99.90;;;;;;4943893;29;21130;-90
2022/03/25 02:21:32;;;;;;;36.93;31.37;;;5.40;99.90;;;;;;4944520;29;20517;-89
2022/03/25 02:24:21;;;;;;;41.20;32.57;;;5.40;99.90;;;;;;4939514;29;20594;-90
2022/03/25 02:27:12;;;;;;;42.87;33.47;;;5.30;99.90;;;;;;4947313;28;20565;-89
2022/03/25 02:30:01;;;;;;;45.87;32.43;;;5.30;99.90;;;;;;4947221;29;20544;-90
2022/03/25 02:32:51;;;;;;;43.10;32.77;;;5.30;99.90;;;;;;4942113;28;20946;-89
2022/03/25 02:35:41;;;;;;;42.27;32.17;;;5.30;99.90;;;;;;4945688;29;20447;-90
2022/03/25 02:38:32;;;;;;;44.77;33.37;;;5.20;99.90;;;;;;4943578;29;20497;-89
2022/03/25 02:41:20;;;;;;;42.57;32.37;;;5.20;99.90;;;;;;4944686;29;20978;-88
2022/03/25 02:44:10;;;;;;;40.43;31.90;;;5.20;99.90;;;;;;4940964;28;20475;-89
2022/03/25 02:46:59;;;;;;;44.10;32.70;;;5.10;99.90;;;;;;4945215;29;20494;-89
2022/03/25 02:49:48;;;;;;;41.67;33.30;;;5.10;99.90;;;;;;4944460;29;20467;-89
2022/03/25 02:52:36;;;;;;;43.57;32.47;;;5.10;99.90;;;;;;4938123;29;20592;-89
2022/03/25 02:55:28;;;;;;;40.57;33.00;;;5.10;99.90;;;;;;4948844;29;20534;-90
2022/03/25 02:58:18;;;;;;;42.10;32.87;;;5.10;99.90;;;;;;4940590;29;20581;-91
2022/03/25 03:01:07;;;;;;;39.87;34.27;;;5.10;99.90;;;;;;4941146;29;20480;-91
2022/03/25 03:03:55;;;;;;;42.27;32.60;;;5.10;99.90;;;;;;4942240;29;20479;-87
2022/03/25 03:06:45;;;;;;;44.47;34.13;;;5.00;99.90;;;;;;4939903;28;20452;-90
2022/03/25 03:09:33;;;;;;;41.73;33.13;;;5.00;99.90;;;;;;4945774;29;21058;-89
2022/03/25 03:12:24;;;;;;;43.47;33.17;;;5.00;99.90;;;;;;4947181;28;20477;-90
2022/03/25 03:15:15;;;;;;;44.00;33.50;;;4.90;99.90;;;;;;4960762;28;20477;-89
2022/03/25 03:18:04;;;;;;;42.03;32.67;;;4.90;99.90;;;;;;4960406;28;21006;-89
2022/03/25 03:20:54;;;;;;;43.20;33.03;;;4.90;99.90;;;;;;4959214;28;20465;-89
2022/03/25 03:23:42;;;;;;;42.43;32.10;;;4.90;99.90;;;;;;4963239;28;20671;-90
2022/03/25 03:26:31;;;;;;;40.60;31.77;;;4.90;99.90;;;;;;4962859;28;20566;-89
2022/03/25 03:29:21;;;;;;;41.97;32.23;;;4.80;99.90;;;;;;4962100;28;20447;-90
2022/03/25 03:32:10;;;;;;;43.83;32.63;;;4.80;99.90;;;;;;4958827;28;20559;-89
2022/03/25 03:34:59;;;;;;;43.73;32.80;;;4.80;99.90;;;;;;4960450;28;20474;-89
2022/03/25 03:37:48;;;;;;;40.80;31.53;;;4.80;99.90;;;;;;4967936;28;20494;-89
2022/03/25 03:40:38;;;;;;;44.37;34.43;;;4.80;99.90;;;;;;4968135;28;20462;-90
2022/03/25 03:43:27;;;;;;;43.47;32.87;;;4.70;99.90;;;;;;4961360;28;20507;-90
2022/03/25 03:46:17;;;;;;;44.30;32.90;;;4.70;99.90;;;;;;4967805;28;20568;-89
2022/03/25 03:49:06;;;;;;;44.63;34.47;;;4.70;99.90;;;;;;4964220;28;20466;-88
2022/03/25 03:51:55;;;;;;;44.63;34.30;;;4.60;99.90;;;;;;4962029;28;20461;-88
2022/03/25 03:54:43;;;;;;;48.23;34.77;;;4.60;99.90;;;;;;4960320;28;20511;-89
2022/03/25 03:57:31;;;;;;;46.77;34.73;;;4.50;99.90;;;;;;4961128;28;20519;-89
2022/03/25 04:00:21;;;;;;;45.97;34.80;;;4.50;99.90;;;;;;4964687;28;20510;-89
2022/03/25 04:03:12;;;;;;;45.80;35.83;;;4.50;99.90;;;;;;4957558;28;20467;-90
2022/03/25 04:06:01;;;;;;;45.07;35.10;;;4.50;99.90;;;;;;4967102;28;20460;-90
2022/03/25 04:08:50;;;;;;;49.07;35.33;;;4.50;99.90;;;;;;4962208;28;20561;-89
2022/03/25 04:11:38;;;;;;;42.90;33.70;;;4.40;99.90;;;;;;4960827;28;20542;-90
2022/03/25 04:14:27;;;;;;;49.97;36.77;;;4.40;99.90;;;;;;4962848;28;21013;-90
2022/03/25 04:17:15;;;;;;;46.87;35.60;;;4.30;99.90;;;;;;4956757;28;20561;-91
2022/03/25 04:20:06;;;;;;;48.27;37.00;;;4.30;99.90;;;;;;4959559;28;20487;-90
2022/03/25 04:22:55;;;;;;;46.80;35.50;;;4.30;99.90;;;;;;4962340;28;20478;-90
2022/03/25 04:25:43;;;;;;;47.43;36.30;;;4.30;99.90;;;;;;4956702;28;20466;-89
2022/03/25 04:28:32;;;;;;;46.00;35.13;;;4.30;99.90;;;;;;4959002;28;20517;-90
2022/03/25 04:31:21;;;;;;;50.37;37.10;;;4.30;99.90;;;;;;4961496;28;20458;-89
2022/03/25 04:34:09;;;;;;;48.37;35.83;;;4.30;99.90;;;;;;4953071;28;20482;-89
2022/03/25 04:36:59;;;;;;;44.60;35.13;;;4.20;99.90;;;;;;4959838;28;20586;-90
2022/03/25 04:39:47;;;;;;;52.40;39.10;;;4.20;99.90;;;;;;4963224;28;20458;-91
2022/03/25 04:42:36;;;;;;;49.10;36.90;;;4.20;99.90;;;;;;4960616;28;20513;-90
2022/03/25 04:45:25;;;;;;;44.63;35.63;;;4.20;99.90;;;;;;4960482;28;21015;-90
2022/03/25 04:48:14;;;;;;;53.60;37.90;;;4.20;99.90;;;;;;4961986;28;20526;-90
2022/03/25 04:51:02;;;;;;;48.53;36.77;;;4.20;99.90;;;;;;4963849;28;20529;-89
2022/03/25 04:53:52;;;;;;;48.93;35.57;;;4.20;99.90;;;;;;4962524;28;20561;-90
2022/03/25 04:56:41;;;;;;;46.60;36.40;;;4.20;99.90;;;;;;4964965;28;20501;-89
2022/03/25 04:59:29;;;;;;;52.80;37.00;;;4.20;99.90;;;;;;4959613;28;20455;-91
2022/03/25 05:02:17;;;;;;;50.27;37.30;;;4.10;99.90;;;;;;4958435;28;20958;-90
2022/03/25 05:05:08;;;;;;;46.50;35.67;;;4.10;99.90;;;;;;4979075;28;20467;-90
2022/03/25 05:07:57;;;;;;;48.23;35.63;;;4.10;99.90;;;;;;4974639;28;20462;-89
2022/03/25 05:10:47;;;;;;;45.90;34.90;;;4.10;99.90;;;;;;4958105;28;21082;-89
2022/03/25 05:13:51;;;;;;;46.17;36.40;;;4.10;99.90;;;;;;4962748;28;20485;-89
2022/03/25 05:16:41;;;;;;;48.03;36.67;;;4.10;99.90;;;;;;4957494;28;20462;-90
2022/03/25 05:19:30;;;;;;;48.97;36.00;;;4.00;99.90;;;;;;4962678;28;20463;-89
2022/03/25 05:22:19;;;;;;;49.83;35.70;;;4.00;99.90;;;;;;4968659;28;20548;-91
2022/03/25 05:25:09;;;;;;;49.07;36.60;;;4.00;99.90;;;;;;4963275;28;20537;-90
2022/03/25 05:27:59;;;;;;;53.07;36.47;;;4.00;99.90;;;;;;4966088;28;20475;-90
2022/03/25 05:30:48;;;;;;;51.30;36.53;;;4.00;99.90;;;;;;4966718;28;20930;-91
2022/03/25 05:33:36;;;;;;;45.03;34.80;;;4.00;99.90;;;;;;4955723;28;20482;-91
2022/03/25 05:36:25;;;;;;;46.67;35.03;;;4.00;99.90;;;;;;4939887;29;20534;-91
2022/03/25 05:39:15;;;;;;;43.30;34.30;;;4.10;99.90;;;;;;4938500;29;20454;-90
2022/03/25 05:42:05;;;;;;;48.90;35.13;;;4.10;99.90;;;;;;4949672;29;20487;-90
2022/03/25 05:44:58;;;;;;;48.20;35.50;;;4.20;99.90;;;;;;4958557;28;21005;-91
2022/03/25 05:47:46;;;;;;;46.23;34.13;;;4.20;99.90;;;;;;4962705;28;20499;-91
2022/03/25 05:50:35;;;;;;;51.03;35.83;;;4.20;99.90;;;;;;4969810;28;20438;-91
2022/03/25 05:53:24;;;;;;;48.30;35.67;;;4.20;99.90;;;;;;4967100;28;20626;-91
2022/03/25 05:56:13;;;;;;;48.60;37.20;;;4.30;99.90;;;;;;4964882;28;20458;-89
2022/03/25 05:59:01;;;;;;;49.83;37.20;;;4.30;99.90;;;;;;4962367;28;21466;-90
2022/03/25 06:01:52;;;;;;;50.40;36.20;;;4.30;99.90;;;;;;4966298;28;20474;-91
2022/03/25 06:04:41;;;;;;;50.67;37.73;;;4.30;99.90;;;;;;4966126;28;20576;-90
2022/03/25 06:07:36;;;;;;;49.43;35.73;;;4.30;99.90;;;;;;4963753;28;20506;-91
2022/03/25 06:10:25;;;;;;;54.03;35.67;;;4.30;99.90;;;;;;4960555;28;20508;-89
2022/03/25 06:13:13;;;;;;;51.00;37.20;;;4.30;99.90;;;;;;4961114;28;20544;-91
2022/03/25 06:16:05;;;;;;;48.33;36.47;;;4.40;99.90;;;;;;4965786;28;20926;-91
2022/03/25 06:18:57;;;;;;;52.53;35.90;;;4.40;99.90;;;;;;4964117;28;20475;-91
2022/03/25 06:21:45;;;;;;;54.70;37.87;;;4.50;99.90;;;;;;4968594;28;20451;-91
2022/03/25 06:24:35;;;;;;;48.73;35.93;;;4.50;99.90;;;;;;4963882;28;20673;-91
2022/03/25 06:27:23;;;;;;;60.50;39.60;;;4.60;99.90;;;;;;4965500;28;20969;-90
2022/03/25 06:30:12;;;;;;;49.00;38.20;;;4.60;99.90;;;;;;4964352;28;20520;-89
2022/03/25 06:33:05;;;;;;;49.03;37.63;;;4.70;99.90;;;;;;4959481;28;20481;-91
2022/03/25 06:35:57;;;;;;;57.47;39.70;;;4.70;99.90;;;;;;4956451;28;20452;-90
2022/03/25 06:38:46;;;;;;;59.63;40.70;;;4.80;99.90;;;;;;4960022;28;20486;-90
2022/03/25 06:41:34;;;;;;;56.57;40.90;;;4.90;99.90;;;;;;4963984;28;20573;-91
2022/03/25 06:44:23;;;;;;;56.57;41.67;;;5.30;99.90;;;;;;4942208;28;20496;-91
2022/03/25 06:47:12;;;;;;;62.80;42.27;;;5.60;99.90;;;;;;4940313;28;20999;-90
2022/03/25 06:50:01;;;;;;;58.37;42.47;;;5.70;99.90;;;;;;4940985;29;20987;-90
2022/03/25 06:52:51;;;;;;;60.43;43.30;;;5.70;99.90;;;;;;4942610;28;20517;-90
2022/03/25 06:55:43;;;;;;;67.30;45.90;;;5.70;99.90;;;;;;4943022;29;20918;-89
2022/03/25 06:58:34;;;;;;;64.77;45.03;;;5.70;99.90;;;;;;4951094;28;20648;-92
2022/03/25 07:01:24;;;;;;;69.00;46.73;;;5.70;99.90;;;;;;4961117;28;20466;-94
2022/03/25 07:04:13;;;;;;;67.17;46.73;;;5.80;99.90;;;;;;4967128;28;20484;-94
2022/03/25 07:07:05;;;;;;;70.80;49.80;;;5.80;99.90;;;;;;4958789;28;20491;-93
2022/03/25 07:09:56;;;;;;;68.53;46.47;;;5.90;99.90;;;;;;4957774;28;20476;-91
2022/03/25 07:12:46;;;;;;;68.13;47.40;;;6.00;99.90;;;;;;4951439;29;20471;-90
2022/03/25 07:15:36;;;;;;;71.67;49.90;;;6.00;99.90;;;;;;4943359;28;20451;-90
2022/03/25 07:18:33;;;;;;;70.50;47.77;;;6.10;99.90;;;;;;4944784;29;20471;-89
2022/03/25 07:21:22;;;;;;;73.63;49.80;;;6.20;99.90;;;;;;4949369;29;20460;-91
2022/03/25 07:24:11;;;;;;;75.27;49.50;;;6.30;99.90;;;;;;4960219;28;20601;-94
2022/03/25 07:27:01;;;;;;;67.90;47.23;;;6.40;99.90;;;;;;4968834;28;20443;-93
2022/03/25 07:29:52;;;;;;;69.87;48.93;;;6.50;99.90;;;;;;4970882;28;20462;-93
2022/03/25 07:32:40;;;;;;;79.03;51.10;;;6.60;99.90;;;;;;4971802;28;20447;-92
2022/03/25 07:35:29;;;;;;;83.77;52.97;;;6.60;99.90;;;;;;4966954;28;20606;-92
2022/03/25 07:38:17;;;;;;;74.77;49.30;;;6.80;99.90;;;;;;4940060;28;20555;-90
2022/03/25 07:41:06;;;;;;;74.57;51.37;;;6.90;99.90;;;;;;4944412;29;20527;-91
2022/03/25 07:43:56;;;;;;;79.10;52.73;;;7.00;99.90;;;;;;4956839;29;21196;-91
2022/03/25 07:46:44;;;;;;;73.63;51.00;;;7.20;99.90;;;;;;4960701;28;20519;-90
2022/03/25 07:49:34;;;;;;;72.40;50.67;;;7.20;99.90;;;;;;4957843;29;20467;-91
2022/03/25 07:52:22;;;;;;;71.07;50.60;;;7.30;99.90;;;;;;4955959;28;20502;-92
2022/03/25 07:55:20;;;;;;;74.10;50.33;;;7.40;99.90;;;;;;4952790;29;20540;-90
2022/03/25 07:58:08;;;;;;;71.17;49.17;;;7.50;99.90;;;;;;4962405;28;20466;-92
2022/03/25 08:01:00;;;;;;;64.07;47.13;;;7.60;99.90;;;;;;4962354;28;20914;-91
2022/03/25 08:03:50;;;;;;;65.23;46.30;;;7.70;99.90;;;;;;4965217;29;20503;-90
2022/03/25 08:06:38;;;;;;;70.60;47.30;;;7.90;99.90;;;;;;4961852;29;20444;-90
2022/03/25 08:09:27;;;;;;;65.80;47.87;;;8.00;99.90;;;;;;4961868;28;20448;-90
2022/03/25 08:12:19;;;;;;;68.23;48.37;;;8.20;99.90;;;;;;4955524;28;21081;-92
2022/03/25 08:15:09;;;;;;;64.67;46.97;;;8.30;99.90;;;;;;4954176;28;20955;-92
2022/03/25 08:18:02;;;;;;;71.37;48.07;;;8.40;99.90;;;;;;4955095;28;20475;-90
2022/03/25 08:20:53;;;;;;;63.30;45.97;;;8.60;99.90;;;;;;4956452;28;20463;-89
2022/03/25 08:29:55;;;;;;;62.53;44.20;;;9.00;99.90;;;;;;4950238;28;20503;-91
2022/03/25 08:32:43;;;;;;;55.67;41.30;;;9.10;99.90;;;;;;4948475;28;20459;-90
2022/03/25 08:35:34;;;;;;;51.50;38.90;;;9.20;99.90;;;;;;4954308;29;20468;-91
2022/03/25 08:38:23;;;;;;;55.10;40.37;;;9.40;99.90;;;;;;4941345;28;20475;-90
2022/03/25 08:41:11;;;;;;;51.47;37.43;;;9.50;99.90;;;;;;4947484;29;20522;-91
2022/03/25 08:44:00;;;;;;;47.40;35.47;;;9.70;99.90;;;;;;4950807;29;20475;-91
2022/03/25 08:46:48;;;;;;;51.40;36.60;;;9.90;99.90;;;;;;4944624;28;20463;-91
2022/03/25 08:49:37;;;;;;;46.33;34.43;;;10.00;99.90;;;;;;4947835;29;20459;-91
2022/03/25 08:52:27;;;;;;;46.83;33.03;;;10.10;99.90;;;;;;4948256;29;20475;-91
2022/03/25 08:55:16;;;;;;;46.70;33.60;;;10.20;99.90;;;;;;4946442;29;20463;-92
2022/03/25 08:58:06;;;;;;;45.77;35.40;;;10.30;99.90;;;;;;4943193;28;20492;-91
2022/03/25 09:00:54;;;;;;;44.57;32.53;;;10.40;99.90;;;;;;4942944;29;20569;-91
2022/03/25 09:03:43;;;;;;;45.60;31.63;;;10.50;99.90;;;;;;4949260;29;20470;-90
2022/03/25 09:06:32;;;;;;;42.20;31.90;;;10.50;99.90;;;;;;4942313;29;22309;-90
2022/03/25 09:09:22;;;;;;;42.40;32.00;;;10.60;99.90;;;;;;4942816;29;20448;-91
2022/03/25 09:12:11;;;;;;;43.77;31.97;;;10.70;99.90;;;;;;4945697;29;20801;-91
2022/03/25 09:14:59;;;;;;;43.40;30.90;;;10.80;99.90;;;;;;4946903;29;20803;-90
2022/03/25 09:17:49;;;;;;;41.10;30.07;;;10.90;99.90;;;;;;4946124;29;20479;-90
2022/03/25 09:20:37;;;;;;;39.47;30.43;;;11.10;99.90;;;;;;4942467;28;20952;-90
2022/03/25 09:23:26;;;;;;;43.90;30.87;;;11.10;99.90;;;;;;4943555;28;20522;-90
2022/03/25 09:26:18;;;;;;;43.10;30.67;;;11.20;99.90;;;;;;4947935;29;20777;-89
2022/03/25 09:29:06;;;;;;;40.70;31.90;;;11.30;99.90;;;;;;4947326;29;20478;-90
2022/03/25 09:31:55;;;;;;;39.47;29.50;;;11.40;99.90;;;;;;4945426;29;20542;-90
2022/03/25 09:35:09;;;;;;;40.40;28.97;;;11.60;99.90;;;;;;4949445;29;20455;-90
2022/03/25 09:37:58;;;;;;;39.60;29.80;;;11.70;99.90;;;;;;4951319;28;20497;-89
2022/03/25 09:40:48;;;;;;;39.53;29.57;;;11.90;99.90;;;;;;4949454;29;20464;-90
2022/03/25 09:43:40;;;;;;;37.47;28.57;;;12.00;99.90;;;;;;4948370;28;20447;-92
2022/03/25 09:46:29;;;;;;;40.83;29.43;;;12.00;99.90;;;;;;4948924;29;20801;-89
2022/03/25 09:49:20;;;;;;;40.37;28.43;;;12.20;99.90;;;;;;4945889;28;20492;-90
2022/03/25 09:52:09;;;;;;;35.80;27.90;;;12.30;99.90;;;;;;4945901;29;20462;-90
2022/03/25 09:55:17;;;;;;;35.40;28.10;;;12.30;99.90;;;;;;4946036;29;20475;-91
2022/03/25 09:58:06;;;;;;;35.20;27.63;;;12.50;99.90;;;;;;4942639;29;20601;-90
2022/03/25 10:00:59;;;;;;;38.83;30.00;;;12.60;99.90;;;;;;4944234;28;20463;-91
2022/03/25 10:03:49;;;;;;;40.17;29.87;;;12.70;99.90;;;;;;4950130;29;20951;-89
2022/03/25 10:06:47;;;;;;;36.47;28.53;;;12.90;99.90;;;;;;4948235;29;20475;-90
2022/03/25 10:09:35;;;;;;;38.47;28.57;;;13.00;99.90;;;;;;4949132;29;20463;-90
2022/03/25 10:12:26;;;;;;;35.83;27.53;;;13.10;99.90;;;;;;4946196;29;20554;-90
2022/03/25 10:15:20;;;;;;;39.50;28.90;;;13.20;99.90;;;;;;4945223;29;20451;-90
2022/03/25 10:18:10;;;;;;;37.23;29.43;;;13.30;99.90;;;;;;4945483;29;20472;-90
2022/03/25 10:20:59;;;;;;;38.50;29.97;;;13.40;99.90;;;;;;4944920;29;20470;-91
2022/03/25 10:23:47;;;;;;;36.57;28.40;;;13.60;99.90;;;;;;4946788;29;20483;-90
2022/03/25 10:26:37;;;;;;;36.63;27.67;;;13.60;99.90;;;;;;4942257;29;20824;-91
2022/03/25 10:29:25;;;;;;;36.93;29.83;;;13.70;99.90;;;;;;4946857;28;20471;-91
2022/03/25 10:32:16;;;;;;;35.77;30.13;;;13.80;99.90;;;;;;4943915;29;20603;-90
2022/03/25 10:35:09;;;;;;;38.87;29.30;;;13.90;99.90;;;;;;4945827;28;20494;-90
2022/03/25 10:37:59;;;;;;;34.27;28.30;;;14.00;99.90;;;;;;4950619;28;20574;-90
2022/03/25 10:40:52;;;;;;;37.70;29.87;;;14.10;99.90;;;;;;4947225;29;20459;-88
2022/03/25 10:43:50;;;;;;;41.00;29.63;;;14.20;99.90;;;;;;4940943;29;20543;-90
2022/03/25 10:46:41;;;;;;;37.87;26.43;;;14.30;99.90;;;;;;4942399;29;20505;-89
2022/03/25 10:49:43;;;;;;;28.27;23.60;;;14.40;99.90;;;;;;4943938;29;20447;-90
2022/03/25 10:52:34;;;;;;;32.13;25.03;;;14.60;99.90;;;;;;4950133;29;20534;-89
2022/03/25 10:55:24;;;;;;;30.47;22.97;;;14.70;99.90;;;;;;4941559;29;20443;-90
2022/03/25 10:58:13;;;;;;;30.93;24.13;;;14.90;99.90;;;;;;4947013;28;20885;-90
2022/03/25 11:01:05;;;;;;;31.47;24.60;;;15.00;99.90;;;;;;4951517;29;20456;-89
2022/03/25 11:03:54;;;;;;;30.23;24.43;;;15.10;99.90;;;;;;4944948;29;21355;-88
2022/03/25 11:06:45;;;;;;;30.07;25.93;;;15.20;99.90;;;;;;4936946;29;20483;-90
2022/03/25 11:09:38;;;;;;;31.40;24.33;;;15.30;99.90;;;;;;4945517;29;20463;-89
2022/03/25 11:12:27;;;;;;;27.30;23.80;;;15.40;99.90;;;;;;4949731;29;20502;-89
2022/03/25 11:15:18;;;;;;;30.23;24.40;;;15.60;99.90;;;;;;4939811;29;20455;-89
2022/03/25 11:18:07;;;;;;;29.97;25.73;;;15.70;99.90;;;;;;4946165;28;20666;-90
2022/03/25 11:20:59;;;;;;;29.20;24.77;;;15.70;99.90;;;;;;4947457;28;20463;-89
2022/03/25 11:23:51;;;;;;;28.53;23.17;;;15.90;99.90;;;;;;4939668;29;20489;-90
2022/03/25 11:26:46;;;;;;;27.63;22.50;;;16.10;99.90;;;;;;4954703;29;20487;-89
2022/03/25 11:29:37;;;;;;;26.37;22.27;;;16.20;99.90;;;;;;4959064;29;20456;-91
2022/03/25 11:32:27;;;;;;;29.13;23.23;;;16.30;99.90;;;;;;4961108;29;20466;-91
2022/03/25 11:35:20;;;;;;;27.77;22.20;;;16.40;99.90;;;;;;4950790;29;20515;-90
2022/03/25 11:38:19;;;;;;;28.37;19.37;;;16.60;99.90;;;;;;4946845;28;20471;-90
2022/03/25 11:41:25;;;;;;;27.80;19.50;;;16.70;99.90;;;;;;4944868;29;20459;-90
2022/03/25 11:44:25;;;;;;;20.27;17.50;;;16.90;99.90;;;;;;4942772;29;20661;-90
2022/03/25 11:47:18;;;;;;;23.97;19.10;;;17.00;99.90;;;;;;4941912;28;20910;-90
2022/03/25 11:50:29;;;;;;;22.37;19.67;;;17.10;99.90;;;;;;4943148;28;20566;-90
2022/03/25 11:53:33;;;;;;;23.10;19.00;;;17.30;99.90;;;;;;4941874;28;20464;-90
2022/03/25 11:56:22;;;;;;;23.50;20.10;;;17.50;99.90;;;;;;4947797;29;20463;-90
2022/03/25 11:59:12;;;;;;;23.43;19.00;;;17.60;99.90;;;;;;4944496;28;20845;-90
2022/03/25 12:02:41;;;;;;;20.93;18.77;;;17.80;99.90;;;;;;4947217;28;20964;-90
2022/03/25 12:05:38;;;;;;;25.20;20.10;;;17.90;99.90;;;;;;4941390;28;20475;-89
2022/03/25 12:08:31;;;;;;;22.50;18.90;;;18.00;99.90;;;;;;4939089;28;20466;-91
2022/03/25 12:11:52;;;;;;;21.63;17.53;;;18.10;99.90;;;;;;4941541;29;20960;-91
2022/03/25 12:15:07;;;;;;;26.87;19.90;;;18.20;99.90;;;;;;4940442;29;20498;-89
2022/03/25 12:18:35;;;;;;;26.50;19.97;;;18.50;99.90;;;;;;4956517;28;20501;-92
2022/03/25 12:21:48;;;;;;;20.73;17.37;;;18.70;99.90;;;;;;4965278;28;20489;-91
2022/03/25 12:24:37;;;;;;;23.30;17.80;;;18.70;99.90;;;;;;4961252;28;20443;-91
2022/03/25 12:27:27;;;;;;;19.97;17.33;;;18.80;99.90;;;;;;4953608;28;20543;-90
2022/03/25 12:30:17;;;;;;;20.03;17.60;;;18.90;99.90;;;;;;4956754;28;20456;-90
2022/03/25 12:33:08;;;;;;;19.93;17.10;;;19.20;99.90;;;;;;4955724;28;20456;-92
2022/03/25 12:35:59;;;;;;;20.23;16.83;;;19.40;99.90;;;;;;4960550;28;20465;-93
2022/03/25 12:38:53;;;;;;;23.07;19.70;;;19.50;99.90;;;;;;4961975;28;20593;-92
2022/03/25 12:41:48;;;;;;;24.17;19.37;;;19.70;99.90;;;;;;4963198;28;20455;-92
2022/03/25 12:44:40;;;;;;;22.53;18.47;;;19.90;99.90;;;;;;4957605;29;20463;-92
2022/03/25 12:47:32;;;;;;;20.37;18.00;;;20.00;99.90;;;;;;4958478;28;20483;-90
2022/03/25 12:50:23;;;;;;;19.40;17.40;;;20.10;99.90;;;;;;4950239;29;20458;-91
2022/03/25 12:53:12;;;;;;;22.70;17.20;;;20.40;99.90;;;;;;4945392;29;20455;-90
2022/03/25 12:56:04;;;;;;;22.57;19.20;;;20.60;99.90;;;;;;4945449;28;20546;-90
2022/03/25 12:58:57;;;;;;;20.00;17.97;;;21.20;99.90;;;;;;4942773;28;20478;-91
2022/03/25 13:01:47;;;;;;;19.30;17.20;;;22.10;99.90;;;;;;4944668;29;20889;-88
2022/03/25 13:04:37;;;;;;;21.17;18.93;;;23.00;99.90;;;;;;4949631;29;20523;-89
2022/03/25 13:07:31;;;;;;;23.07;18.50;;;23.40;99.90;;;;;;4945284;28;20489;-90
2022/03/25 13:10:19;;;;;;;22.37;17.67;;;24.00;99.90;;;;;;4949497;29;20452;-91
2022/03/25 13:15:45;;;;;;;20.27;18.30;;;26.40;96.00;;;;;;4942090;29;21015;-96
2022/03/25 13:18:37;;;;;;;19.77;17.87;;;27.40;95.40;;;;;;4943514;29;20487;-94
2022/03/25 13:21:28;;;;;;;21.10;18.50;;;28.10;91.00;;;;;;4938643;29;20468;-94
2022/03/25 13:24:24;;;;;;;19.33;17.43;;;28.30;83.90;;;;;;4945121;29;20488;-94
2022/03/25 13:27:20;;;;;;;19.97;17.90;;;28.70;85.10;;;;;;4949324;29;20484;-93
2022/03/25 13:30:10;;;;;;;18.30;16.40;;;29.00;79.20;;;;;;4941275;29;20453;-94
2022/03/25 13:33:23;;;;;;;17.67;15.97;;;29.00;78.70;;;;;;4948627;28;20456;-95
2022/03/25 13:36:30;;;;;;;18.33;16.00;;;29.30;77.50;;;;;;4952425;28;20476;-94
2022/03/25 13:39:26;;;;;;;17.97;16.33;;;28.90;74.60;;;;;;4946067;29;20463;-95
2022/03/25 13:42:16;;;;;;;19.20;17.23;;;28.40;72.90;;;;;;4936303;29;20511;-94
2022/03/25 13:45:10;;;;;;;17.50;15.80;;;27.70;73.10;;;;;;4942886;29;20463;-91
2022/03/25 13:48:03;;;;;;;18.87;16.87;;;27.40;76.70;;;;;;4937383;29;20479;-93
2022/03/25 13:50:57;;;;;;;18.17;16.37;;;27.20;73.90;;;;;;4941160;29;20456;-92
2022/03/25 13:53:46;;;;;;;18.07;16.27;;;26.60;73.80;;;;;;4937535;29;20483;-94
2022/03/25 13:56:42;;;;;;;18.00;16.20;;;25.90;73.70;;;;;;4948597;28;20488;-92
2022/03/25 13:59:36;;;;;;;19.07;17.07;;;25.60;74.80;;;;;;4933855;29;20463;-92
2022/03/25 14:02:28;;;;;;;19.27;16.60;;;25.60;75.20;;;;;;4936342;29;20471;-92
2022/03/25 14:05:25;;;;;;;19.77;17.80;;;25.40;75.60;;;;;;4938160;29;20519;-92
2022/03/25 14:08:34;;;;;;;18.57;16.70;;;25.10;74.40;;;;;;4937940;29;20459;-93
2022/03/25 14:11:32;;;;;;;17.77;15.97;;;24.90;76.30;;;;;;4931886;29;20822;-92
2022/03/25 14:14:27;;;;;;;18.90;16.90;;;24.50;77.40;;;;;;4936983;29;20494;-91
2022/03/25 14:17:16;;;;;;;18.07;16.30;;;24.20;76.10;;;;;;4938196;29;20512;-94
2022/03/25 14:20:14;;;;;;;18.27;16.43;;;23.70;78.00;;;;;;4935129;29;20461;-91
2022/03/25 14:23:21;;;;;;;17.37;15.50;;;23.30;80.00;;;;;;4936955;29;20551;-92
2022/03/25 14:26:10;;;;;;;16.87;14.57;;;22.80;78.60;;;;;;4937608;29;20452;-92
2022/03/25 14:29:00;;;;;;;17.00;14.90;;;22.60;81.60;;;;;;4933020;29;20468;-92
2022/03/25 14:31:48;;;;;;;16.50;14.80;;;22.40;81.30;;;;;;4936471;29;20456;-91
2022/03/25 14:34:39;;;;;;;15.73;14.20;;;22.20;82.40;;;;;;4939959;29;20444;-91
2022/03/25 14:37:28;;;;;;;15.97;14.43;;;22.20;84.70;;;;;;4939008;29;20464;-93
2022/03/25 14:40:19;;;;;;;15.50;13.90;;;21.90;82.60;;;;;;4930954;29;20546;-93
2022/03/25 14:43:08;;;;;;;15.00;12.60;;;21.60;85.10;;;;;;4938293;29;20476;-92